Terminal Aerodrome Forecast
Issued by NWS Boston, MA

Home | Current Version | Previous Version | Text Only | Print | Product List | Glossary On
Versions: 1 2 3 4 5 6 7 8 9 10 11 12 13 14 15
000
FTUS41 KBOX 261743 AAC
TAFORH
TAF AMD
KORH 261743Z 2618/2718 VRB03KT P6SM SCT250
     FM270600 24004KT 5SM BR BKN250
     FM270800 25004KT 3SM BR BKN008
     FM270900 25004KT 2SM BR SCT008
     FM271300 23004KT P6SM BKN003
     FM271500 22005KT P6SM BKN070
     FM271600 21006KT P6SM SCT080=

USA.gov is the U.S. government's official web portal to all federal, state and local government web resources and services.